Time;durP1;ratioP1;P1;durP2;ratioP2;P2;SDS_P1;SDS_P2;PMS_P1;PMS_P2;Temp;Humidity;BMP_temperature;BMP_pressure;BME280_temperature;BME280_humidity;BME280_pressure;Samples;Min_cycle;Max_cycle;Signal;HPM_P1;HPM_P2
2023/09/14 00:01:36;;;;;;;1.52;1.00;;;24.10;58.50;;;;;;6239990;23;20620;-83
2023/09/14 00:04:05;;;;;;;0.60;0.57;;;24.10;58.50;;;;;;6241147;23;20167;-84
2023/09/14 00:06:34;;;;;;;0.47;0.47;;;24.00;58.80;;;;;;6243558;23;20638;-84
2023/09/14 00:09:04;;;;;;;0.30;0.30;;;24.00;58.80;;;;;;6241992;23;20163;-83
2023/09/14 00:11:33;;;;;;;0.30;0.30;;;24.00;58.90;;;;;;6242466;23;20158;-85
2023/09/14 00:14:01;;;;;;;0.82;0.35;;;23.90;59.20;;;;;;6240475;23;20258;-85
2023/09/14 00:16:30;;;;;;;1.40;1.30;;;23.90;59.20;;;;;;6243106;23;20216;-84
2023/09/14 00:18:59;;;;;;;1.73;0.93;;;23.80;59.20;;;;;;6243370;23;20166;-86
2023/09/14 00:21:28;;;;;;;0.50;0.50;;;23.80;59.20;;;;;;6243978;23;20174;-86
2023/09/14 00:23:56;;;;;;;0.73;0.30;;;23.80;59.30;;;;;;6243112;23;20534;-84
2023/09/14 00:26:26;;;;;;;0.63;0.60;;;23.70;59.30;;;;;;6242236;22;20198;-87
2023/09/14 00:28:55;;;;;;;0.43;0.40;;;23.70;60.00;;;;;;6243334;23;20872;-85
2023/09/14 00:31:23;;;;;;;0.57;0.57;;;23.70;59.40;;;;;;6242778;23;20169;-86
2023/09/14 00:33:52;;;;;;;1.60;1.27;;;23.60;59.40;;;;;;6240895;23;20193;-84
2023/09/14 00:36:20;;;;;;;0.68;0.55;;;23.60;60.20;;;;;;6242032;23;20261;-86
2023/09/14 00:38:49;;;;;;;0.20;0.20;;;23.60;59.70;;;;;;6241964;23;20166;-85
2023/09/14 00:41:18;;;;;;;0.30;0.30;;;23.60;59.70;;;;;;6241635;23;20170;-87
2023/09/14 00:43:48;;;;;;;0.30;0.30;;;23.50;59.60;;;;;;6242428;23;20249;-87
2023/09/14 00:46:16;;;;;;;0.60;0.60;;;23.50;59.70;;;;;;6241876;23;20174;-87
2023/09/14 00:48:45;;;;;;;0.20;0.20;;;23.50;59.70;;;;;;6243030;23;20244;-86
2023/09/14 00:51:14;;;;;;;1.23;0.82;;;23.50;59.70;;;;;;6241791;23;20237;-88
2023/09/14 00:53:43;;;;;;;0.30;0.30;;;23.50;59.70;;;;;;6238379;23;20167;-85
2023/09/14 00:56:12;;;;;;;0.50;0.50;;;23.50;59.80;;;;;;6240488;23;20218;-86
2023/09/14 00:58:41;;;;;;;0.70;0.70;;;23.50;59.90;;;;;;6244131;23;20246;-87
2023/09/14 01:01:14;;;;;;;0.73;0.73;;;23.40;59.90;;;;;;6242388;23;20163;-86
2023/09/14 01:03:43;;;;;;;0.50;0.45;;;23.40;60.00;;;;;;6241854;23;20175;-87
2023/09/14 01:06:12;;;;;;;2.15;1.13;;;23.40;60.20;;;;;;6243584;23;20205;-85
2023/09/14 01:08:41;;;;;;;1.58;0.80;;;23.30;60.60;;;;;;6243767;23;20171;-87
2023/09/14 01:11:09;;;;;;;0.47;0.47;;;23.30;60.60;;;;;;6243675;23;20483;-86
2023/09/14 01:13:45;;;;;;;1.33;1.23;;;23.20;60.60;;;;;;6242209;23;20221;-85
2023/09/14 01:16:22;;;;;;;0.28;0.28;;;23.20;60.50;;;;;;6240209;23;20194;-87
2023/09/14 01:18:57;;;;;;;2.10;1.23;;;23.20;60.80;;;;;;6241939;23;20158;-86
2023/09/14 01:21:47;;;;;;;0.57;0.57;;;23.10;60.90;;;;;;6243601;23;20161;-87
2023/09/14 01:24:24;;;;;;;0.30;0.30;;;23.10;61.00;;;;;;6241590;23;20186;-88
2023/09/14 01:26:54;;;;;;;0.35;0.35;;;23.10;61.10;;;;;;6243192;22;20221;-87
2023/09/14 01:29:23;;;;;;;1.05;0.95;;;23.00;61.10;;;;;;6241818;23;20162;-87
2023/09/14 01:31:51;;;;;;;0.35;0.35;;;23.00;61.10;;;;;;6243887;23;20170;-87
2023/09/14 01:34:23;;;;;;;0.63;0.63;;;23.00;61.30;;;;;;6240325;23;20220;-86
2023/09/14 01:36:57;;;;;;;1.00;0.52;;;23.00;61.30;;;;;;6242186;23;20197;-87
2023/09/14 01:39:27;;;;;;;0.88;0.85;;;22.90;61.30;;;;;;6242079;23;20220;-89
2023/09/14 01:41:57;;;;;;;0.45;0.35;;;22.90;61.30;;;;;;6243206;23;20166;-88
2023/09/14 01:44:27;;;;;;;0.88;0.80;;;22.90;61.40;;;;;;6242741;23;20158;-88
2023/09/14 01:46:56;;;;;;;0.30;0.30;;;22.90;61.30;;;;;;6241275;23;20523;-87
2023/09/14 01:49:25;;;;;;;0.30;0.30;;;22.90;61.30;;;;;;6241921;23;20167;-87
2023/09/14 01:51:54;;;;;;;0.35;0.30;;;22.80;61.30;;;;;;6215897;23;20495;-87
2023/09/14 01:54:23;;;;;;;0.32;0.32;;;22.80;61.40;;;;;;6241643;23;20213;-88
2023/09/14 01:56:52;;;;;;;1.15;1.05;;;22.80;61.70;;;;;;6243021;23;20182;-86
2023/09/14 01:59:25;;;;;;;0.60;0.60;;;22.80;61.70;;;;;;6241053;23;20499;-87
2023/09/14 02:01:55;;;;;;;0.75;0.43;;;22.70;61.90;;;;;;6242935;23;20673;-87
2023/09/14 02:04:23;;;;;;;1.70;0.70;;;22.70;61.90;;;;;;6240250;23;20988;-88
2023/09/14 02:06:52;;;;;;;0.20;0.20;;;22.70;62.00;;;;;;6244355;23;20174;-88
2023/09/14 02:09:21;;;;;;;4.57;1.05;;;22.70;62.00;;;;;;6239428;23;20166;-87
2023/09/14 02:11:49;;;;;;;0.30;0.30;;;22.60;62.30;;;;;;6242879;23;20241;-87
2023/09/14 02:14:18;;;;;;;1.02;0.93;;;22.60;62.50;;;;;;6239297;23;20242;-88
2023/09/14 02:16:50;;;;;;;1.48;0.90;;;22.60;62.50;;;;;;6240914;23;20237;-85
2023/09/14 02:19:19;;;;;;;0.40;0.40;;;22.50;62.50;;;;;;6239315;23;20166;-87
2023/09/14 02:21:48;;;;;;;1.25;1.00;;;22.50;62.60;;;;;;6243777;23;20178;-86
2023/09/14 02:24:16;;;;;;;1.05;0.98;;;22.50;62.70;;;;;;6243937;23;20236;-86
2023/09/14 02:26:46;;;;;;;0.50;0.47;;;22.50;63.00;;;;;;6244059;22;20186;-87
2023/09/14 02:29:15;;;;;;;0.47;0.47;;;22.40;62.90;;;;;;6242023;23;20158;-86
2023/09/14 02:31:44;;;;;;;0.45;0.45;;;22.40;63.10;;;;;;6243895;23;20162;-86
2023/09/14 02:34:14;;;;;;;0.30;0.30;;;22.40;63.20;;;;;;6242322;23;20560;-86
2023/09/14 02:36:42;;;;;;;4.38;1.00;;;22.40;63.20;;;;;;6242700;23;20519;-85
2023/09/14 02:39:11;;;;;;;0.50;0.50;;;22.30;63.20;;;;;;6242303;23;20514;-86
2023/09/14 02:41:40;;;;;;;2.40;1.40;;;22.30;63.30;;;;;;6244109;23;20162;-87
2023/09/14 02:44:08;;;;;;;0.80;0.80;;;22.30;63.40;;;;;;6243119;23;20186;-86
2023/09/14 02:46:37;;;;;;;0.57;0.57;;;22.30;63.40;;;;;;6242482;23;20201;-85
2023/09/14 02:49:06;;;;;;;1.27;0.93;;;22.30;63.30;;;;;;6242561;23;20620;-86
2023/09/14 02:51:36;;;;;;;0.32;0.32;;;22.20;63.40;;;;;;6244003;23;20171;-85
2023/09/14 02:54:06;;;;;;;1.17;0.68;;;22.20;63.40;;;;;;6243125;23;20163;-86
2023/09/14 02:56:34;;;;;;;0.30;0.30;;;22.20;63.70;;;;;;6242714;23;20523;-86
2023/09/14 02:59:03;;;;;;;0.60;0.60;;;22.20;63.60;;;;;;6243201;23;20162;-85
2023/09/14 03:01:32;;;;;;;0.82;0.82;;;22.20;63.70;;;;;;6243106;23;20171;-87
2023/09/14 03:04:01;;;;;;;1.23;0.82;;;22.20;63.70;;;;;;6242353;23;20166;-86
2023/09/14 03:06:31;;;;;;;0.50;0.50;;;22.20;63.70;;;;;;6244578;23;20206;-88
2023/09/14 03:09:02;;;;;;;0.82;0.82;;;22.20;63.70;;;;;;6243398;23;20171;-86
2023/09/14 03:11:31;;;;;;;0.73;0.73;;;22.20;63.70;;;;;;6243797;23;20171;-86
2023/09/14 03:14:00;;;;;;;0.43;0.43;;;22.20;63.70;;;;;;6244093;23;20163;-88
2023/09/14 03:16:28;;;;;;;0.50;0.50;;;22.20;63.80;;;;;;6244627;23;20197;-87
2023/09/14 03:18:57;;;;;;;1.25;0.98;;;22.10;63.70;;;;;;6241500;23;20201;-86
2023/09/14 03:21:27;;;;;;;0.60;0.55;;;22.10;63.90;;;;;;6243468;23;20249;-87
2023/09/14 03:23:57;;;;;;;0.30;0.30;;;22.10;63.90;;;;;;6244084;23;20182;-87
2023/09/14 03:26:28;;;;;;;0.40;0.40;;;22.10;63.90;;;;;;6244964;22;20664;-88
2023/09/14 03:28:57;;;;;;;0.85;0.50;;;22.10;63.90;;;;;;6244639;23;20245;-86
2023/09/14 03:31:26;;;;;;;0.40;0.40;;;22.10;64.10;;;;;;6242947;23;20223;-88
2023/09/14 03:33:55;;;;;;;0.20;0.20;;;22.00;64.00;;;;;;6242345;23;20249;-86
2023/09/14 03:36:24;;;;;;;1.95;0.95;;;22.00;64.20;;;;;;6242547;23;20193;-88
2023/09/14 03:38:52;;;;;;;1.38;0.60;;;21.90;64.10;;;;;;6242982;23;20173;-85
2023/09/14 03:41:21;;;;;;;0.40;0.40;;;21.90;64.10;;;;;;6241915;23;20502;-85
2023/09/14 03:43:51;;;;;;;0.98;0.90;;;21.90;64.30;;;;;;6241856;23;20190;-86
2023/09/14 03:46:20;;;;;;;0.40;0.40;;;21.90;64.60;;;;;;6242362;23;20161;-87
2023/09/14 03:48:48;;;;;;;1.00;0.60;;;21.90;64.70;;;;;;6244425;23;20163;-87
2023/09/14 03:51:17;;;;;;;0.47;0.47;;;21.90;64.90;;;;;;6244154;23;20166;-88
2023/09/14 03:53:46;;;;;;;2.25;1.13;;;21.80;64.70;;;;;;6241955;23;20482;-86
2023/09/14 03:56:15;;;;;;;0.50;0.50;;;21.80;64.80;;;;;;6240858;23;20218;-87
2023/09/14 03:58:44;;;;;;;0.47;0.47;;;21.80;65.70;;;;;;6242764;23;20197;-86
2023/09/14 04:01:14;;;;;;;0.90;0.40;;;21.80;64.90;;;;;;6240993;23;20803;-92
2023/09/14 04:03:44;;;;;;;1.02;0.47;;;21.80;65.20;;;;;;6243036;23;20186;-86
2023/09/14 04:06:13;;;;;;;2.20;0.50;;;21.80;65.50;;;;;;6243258;23;20228;-84
2023/09/14 04:08:42;;;;;;;0.60;0.60;;;21.80;65.50;;;;;;6227385;23;20207;-84
2023/09/14 04:11:11;;;;;;;0.40;0.40;;;21.70;65.50;;;;;;6211690;23;20194;-85
2023/09/14 04:13:39;;;;;;;1.25;0.85;;;21.80;65.50;;;;;;6210132;23;20627;-85
2023/09/14 04:16:08;;;;;;;1.40;0.52;;;21.80;65.60;;;;;;6209088;23;20167;-84
2023/09/14 04:18:38;;;;;;;0.68;0.65;;;21.70;65.50;;;;;;6212948;23;20195;-85
2023/09/14 04:21:10;;;;;;;0.50;0.50;;;21.70;65.70;;;;;;6211958;23;20544;-84
2023/09/14 04:23:39;;;;;;;2.15;1.05;;;21.70;65.60;;;;;;6210337;23;20163;-85
2023/09/14 04:26:10;;;;;;;0.90;0.57;;;21.70;65.80;;;;;;6210010;23;20550;-83
2023/09/14 04:28:44;;;;;;;1.58;0.82;;;21.70;65.90;;;;;;6212651;23;20195;-85
2023/09/14 04:31:14;;;;;;;6.20;1.00;;;21.70;66.10;;;;;;6214081;23;20220;-85
2023/09/14 04:34:16;;;;;;;;;;;;;;;;;;;;;
2023/09/14 04:42:25;;;;;;;0.47;0.47;;;21.60;67.30;;;;;;6242899;23;20232;-86
2023/09/14 04:44:54;;;;;;;0.40;0.40;;;21.60;67.20;;;;;;6243031;23;20169;-84
2023/09/14 04:47:25;;;;;;;1.35;1.02;;;21.70;67.70;;;;;;6240444;23;20269;-93
2023/09/14 04:49:59;;;;;;;2.60;1.17;;;21.60;68.30;;;;;;6244119;23;20597;-89
2023/09/14 04:52:31;;;;;;;0.60;0.60;;;21.60;68.50;;;;;;6244563;23;20159;-92
2023/09/14 04:55:02;;;;;;;3.85;1.90;;;21.60;68.10;;;;;;6242388;23;20166;-86
2023/09/14 04:57:30;;;;;;;1.00;0.70;;;21.60;68.00;;;;;;6240648;23;20214;-84
2023/09/14 04:59:59;;;;;;;0.85;0.85;;;21.70;68.00;;;;;;6239033;23;20162;-87
2023/09/14 05:02:28;;;;;;;0.50;0.50;;;21.70;68.10;;;;;;6242095;23;20286;-85
2023/09/14 05:04:58;;;;;;;0.50;0.50;;;21.80;68.30;;;;;;6238329;23;20253;-85
2023/09/14 05:07:27;;;;;;;2.65;1.20;;;21.80;68.20;;;;;;6240795;23;20174;-84
2023/09/14 05:09:56;;;;;;;0.90;0.75;;;21.80;68.10;;;;;;6241009;23;20193;-84
2023/09/14 05:12:25;;;;;;;0.60;0.60;;;21.80;68.10;;;;;;6241415;23;20176;-85
2023/09/14 05:14:53;;;;;;;2.28;1.75;;;21.80;67.90;;;;;;6241753;23;20480;-85
2023/09/14 05:17:22;;;;;;;1.60;0.88;;;21.90;68.30;;;;;;6244041;23;20190;-85
2023/09/14 05:19:50;;;;;;;0.60;0.60;;;21.90;68.40;;;;;;6242437;23;20944;-86
2023/09/14 05:22:21;;;;;;;0.75;0.60;;;22.00;69.10;;;;;;6242740;23;20467;-86
2023/09/14 05:24:50;;;;;;;1.52;0.73;;;22.00;68.10;;;;;;6239514;23;20155;-86
2023/09/14 05:27:18;;;;;;;0.98;0.60;;;22.10;68.10;;;;;;6242344;23;20172;-84
2023/09/14 05:29:47;;;;;;;0.38;0.38;;;22.10;67.90;;;;;;6242842;23;20206;-87
2023/09/14 05:32:15;;;;;;;0.77;0.77;;;22.20;67.90;;;;;;6242355;23;20173;-87
2023/09/14 05:34:44;;;;;;;0.85;0.47;;;22.20;67.90;;;;;;6242992;23;20170;-84
2023/09/14 05:37:14;;;;;;;0.40;0.40;;;22.30;67.80;;;;;;6242555;23;20174;-86
2023/09/14 05:39:44;;;;;;;0.73;0.63;;;22.40;67.90;;;;;;6242871;23;20155;-86
2023/09/14 05:42:13;;;;;;;0.30;0.30;;;22.40;68.00;;;;;;6241603;22;20222;-87
2023/09/14 05:44:41;;;;;;;0.68;0.68;;;22.40;68.00;;;;;;6244036;23;20174;-86
2023/09/14 05:47:10;;;;;;;1.38;0.70;;;22.50;68.00;;;;;;6241544;23;20216;-85
2023/09/14 05:49:38;;;;;;;0.70;0.70;;;22.50;68.10;;;;;;6242255;23;20170;-85
2023/09/14 05:52:07;;;;;;;0.40;0.40;;;22.60;68.00;;;;;;6243205;23;20170;-85
2023/09/14 05:54:36;;;;;;;0.57;0.57;;;22.70;67.90;;;;;;6242128;23;20242;-84
2023/09/14 05:57:07;;;;;;;0.90;0.73;;;22.70;67.90;;;;;;6242801;23;20260;-84
2023/09/14 05:59:36;;;;;;;0.88;0.82;;;22.80;68.10;;;;;;6242447;23;20186;-84
2023/09/14 06:02:05;;;;;;;0.90;0.90;;;22.90;68.20;;;;;;6242320;22;20174;-84
2023/09/14 06:04:33;;;;;;;0.95;0.88;;;22.90;68.00;;;;;;6244265;23;20173;-85
2023/09/14 06:07:03;;;;;;;0.40;0.40;;;23.00;68.40;;;;;;6242553;23;20210;-84
2023/09/14 06:09:32;;;;;;;0.70;0.70;;;23.00;68.90;;;;;;6241492;23;20249;-84
2023/09/14 06:12:01;;;;;;;1.48;0.90;;;23.10;68.90;;;;;;6241693;23;20167;-85
2023/09/14 06:14:32;;;;;;;0.57;0.57;;;23.20;68.80;;;;;;6242154;23;20174;-84
2023/09/14 06:17:02;;;;;;;2.38;1.00;;;23.20;68.80;;;;;;6243076;23;20541;-84
2023/09/14 06:19:30;;;;;;;1.10;1.00;;;23.20;68.90;;;;;;6242639;23;20194;-85
2023/09/14 06:21:59;;;;;;;0.68;0.65;;;23.30;68.80;;;;;;6242521;23;20177;-85
2023/09/14 06:24:28;;;;;;;1.50;1.02;;;23.40;68.60;;;;;;6243345;23;20177;-85
2023/09/14 06:26:56;;;;;;;5.25;1.98;;;23.50;69.00;;;;;;6243416;23;20616;-85
2023/09/14 06:29:25;;;;;;;0.82;0.82;;;23.50;69.40;;;;;;6241952;23;20162;-84
2023/09/14 06:31:54;;;;;;;0.60;0.60;;;23.60;69.20;;;;;;6240650;23;20271;-85
2023/09/14 06:34:23;;;;;;;0.43;0.43;;;23.60;69.10;;;;;;6237781;23;20616;-85
2023/09/14 06:36:52;;;;;;;1.13;0.70;;;23.70;68.80;;;;;;6241449;23;20500;-83
2023/09/14 06:39:21;;;;;;;0.60;0.60;;;23.80;69.00;;;;;;6240015;23;20197;-84
2023/09/14 06:41:50;;;;;;;1.08;1.00;;;23.90;69.70;;;;;;6241861;22;20614;-83
2023/09/14 06:44:19;;;;;;;2.08;1.42;;;24.00;68.80;;;;;;6242902;23;20186;-85
2023/09/14 06:46:47;;;;;;;5.57;0.85;;;24.10;68.90;;;;;;6244193;23;20167;-83
2023/09/14 06:49:18;;;;;;;0.60;0.60;;;24.20;68.80;;;;;;6240513;23;20170;-84
2023/09/14 06:51:47;;;;;;;3.00;1.20;;;24.30;68.50;;;;;;6242562;23;20163;-84
2023/09/14 06:54:16;;;;;;;2.35;1.48;;;24.30;68.30;;;;;;6249946;23;20166;-84
2023/09/14 06:56:45;;;;;;;0.95;0.52;;;24.50;68.40;;;;;;6264511;23;20561;-85
2023/09/14 06:59:14;;;;;;;0.88;0.77;;;24.60;68.20;;;;;;6267313;23;20199;-84
2023/09/14 07:01:43;;;;;;;0.85;0.73;;;24.60;68.00;;;;;;6266569;23;20147;-85
2023/09/14 07:04:11;;;;;;;0.73;0.73;;;24.70;67.80;;;;;;6264103;23;20174;-83
2023/09/14 07:06:42;;;;;;;1.58;0.73;;;24.80;67.60;;;;;;6265913;23;20167;-86
2023/09/14 07:09:13;;;;;;;0.70;0.50;;;24.90;67.60;;;;;;6274295;22;20294;-86
2023/09/14 07:11:42;;;;;;;1.40;1.25;;;24.90;67.40;;;;;;6251770;22;20197;-84
2023/09/14 07:14:11;;;;;;;0.85;0.85;;;25.00;66.80;;;;;;6276515;22;20211;-83
2023/09/14 07:16:47;;;;;;;2.60;0.90;;;25.10;66.40;;;;;;6278256;22;20561;-86
2023/09/14 07:19:26;;;;;;;3.40;1.55;;;25.20;66.20;;;;;;6276918;22;20193;-85
2023/09/14 07:21:56;;;;;;;0.60;0.60;;;25.20;66.10;;;;;;6275769;22;20154;-83
2023/09/14 07:24:26;;;;;;;2.20;1.45;;;25.30;66.00;;;;;;6271952;22;20166;-85
2023/09/14 07:26:55;;;;;;;2.28;0.82;;;25.30;65.80;;;;;;6275389;22;20169;-86
2023/09/14 07:29:24;;;;;;;7.55;0.90;;;25.40;65.70;;;;;;6248175;22;20170;-83
2023/09/14 07:31:52;;;;;;;2.50;1.25;;;25.50;65.30;;;;;;6276769;22;20165;-85
2023/09/14 07:34:29;;;;;;;0.50;0.50;;;25.60;64.50;;;;;;6273723;22;20161;-87
2023/09/14 07:37:01;;;;;;;0.50;0.50;;;25.60;64.10;;;;;;6274405;22;20173;-86
2023/09/14 07:39:30;;;;;;;0.40;0.40;;;25.70;64.10;;;;;;6275417;22;20194;-87
2023/09/14 07:41:59;;;;;;;0.20;0.20;;;25.80;64.10;;;;;;6273754;22;20162;-86
2023/09/14 07:44:27;;;;;;;0.60;0.60;;;25.90;63.80;;;;;;6274693;22;20165;-85
2023/09/14 07:46:56;;;;;;;2.95;1.83;;;26.00;63.40;;;;;;6273917;22;20162;-87
2023/09/14 07:49:24;;;;;;;0.57;0.50;;;26.10;63.30;;;;;;6274617;22;20916;-84
2023/09/14 07:51:53;;;;;;;2.28;1.25;;;26.10;63.30;;;;;;6275624;22;20197;-84
2023/09/14 07:54:23;;;;;;;2.67;0.60;;;26.20;63.30;;;;;;6272081;22;20286;-86
2023/09/14 07:56:52;;;;;;;1.45;0.98;;;26.30;63.40;;;;;;6272730;22;20176;-84
2023/09/14 07:59:20;;;;;;;0.43;0.32;;;26.40;63.30;;;;;;6272293;22;20532;-84
2023/09/14 08:01:49;;;;;;;0.65;0.65;;;26.50;63.30;;;;;;6247514;22;20669;-84
2023/09/14 08:04:18;;;;;;;1.02;0.50;;;26.60;63.20;;;;;;6246484;22;20189;-85
2023/09/14 08:06:48;;;;;;;0.40;0.40;;;26.70;62.70;;;;;;6275674;22;20166;-86
2023/09/14 08:09:17;;;;;;;0.47;0.43;;;26.70;62.50;;;;;;6274598;22;20200;-86
2023/09/14 08:11:47;;;;;;;0.35;0.35;;;26.80;61.90;;;;;;6273657;22;20165;-84
2023/09/14 08:14:15;;;;;;;1.27;1.00;;;26.90;61.90;;;;;;6271474;22;20158;-84
2023/09/14 08:16:44;;;;;;;0.35;0.35;;;27.00;61.60;;;;;;6274299;22;20174;-85
2023/09/14 08:19:13;;;;;;;1.17;0.60;;;27.10;61.60;;;;;;6273946;22;20216;-85
2023/09/14 08:21:42;;;;;;;0.85;0.65;;;27.10;61.20;;;;;;6276012;22;20170;-85
2023/09/14 08:24:10;;;;;;;0.60;0.60;;;27.20;60.40;;;;;;6273379;22;20173;-85
2023/09/14 08:26:39;;;;;;;0.40;0.40;;;27.30;61.00;;;;;;6274864;22;20248;-85
2023/09/14 08:29:09;;;;;;;0.43;0.43;;;27.30;60.20;;;;;;6272725;22;20635;-85
2023/09/14 08:31:39;;;;;;;0.52;0.52;;;27.40;60.30;;;;;;6274557;22;20669;-84
2023/09/14 09:02:38;;;;;;;2.45;0.55;;;28.30;57.80;;;;;;6234532;22;20898;-85
2023/09/14 09:05:08;;;;;;;0.52;0.30;;;28.40;57.70;;;;;;6242338;23;20155;-85
2023/09/14 09:07:39;;;;;;;0.60;0.30;;;28.50;57.80;;;;;;6243102;23;20163;-84
2023/09/14 09:10:11;;;;;;;0.28;0.28;;;28.60;57.80;;;;;;6240533;23;20170;-84
2023/09/14 09:12:39;;;;;;;1.25;0.73;;;28.60;58.10;;;;;;6244553;23;20159;-83
2023/09/14 09:15:10;;;;;;;1.13;0.50;;;28.70;57.40;;;;;;6242402;23;20508;-86
2023/09/14 09:17:40;;;;;;;0.98;0.75;;;28.80;56.50;;;;;;6243436;23;20541;-85
2023/09/14 09:20:19;;;;;;;0.40;0.40;;;28.80;56.60;;;;;;6241965;23;20225;-84
2023/09/14 09:22:48;;;;;;;0.63;0.63;;;28.90;56.70;;;;;;6243609;23;20206;-85
2023/09/14 09:25:17;;;;;;;1.10;0.82;;;29.00;56.40;;;;;;6242720;23;20177;-85
2023/09/14 09:27:46;;;;;;;0.47;0.47;;;29.00;55.30;;;;;;6244697;23;20174;-84
2023/09/14 09:30:16;;;;;;;4.47;1.38;;;29.10;55.30;;;;;;6242418;23;20212;-86
2023/09/14 09:32:54;;;;;;;1.77;0.52;;;29.10;55.10;;;;;;6245164;23;20154;-83
2023/09/14 09:35:25;;;;;;;1.13;1.02;;;29.20;55.10;;;;;;6243223;23;20601;-84
2023/09/14 09:37:55;;;;;;;0.82;0.68;;;29.30;54.90;;;;;;6243160;23;20170;-81
2023/09/14 09:40:25;;;;;;;0.40;0.40;;;29.40;54.50;;;;;;6242057;23;20194;-84
2023/09/14 09:42:54;;;;;;;0.47;0.40;;;29.40;54.00;;;;;;6243998;23;20182;-84
2023/09/14 09:45:26;;;;;;;0.55;0.55;;;29.50;54.20;;;;;;6242055;23;20159;-84
2023/09/14 09:47:56;;;;;;;0.88;0.70;;;29.60;54.40;;;;;;6240713;23;20173;-85
2023/09/14 09:50:24;;;;;;;1.05;0.90;;;29.60;53.70;;;;;;6242068;23;20620;-88
2023/09/14 09:52:53;;;;;;;1.98;1.33;;;29.70;52.80;;;;;;6242697;23;20171;-84
2023/09/14 09:55:24;;;;;;;1.00;0.95;;;29.70;53.30;;;;;;6242424;23;20166;-86
2023/09/14 09:57:55;;;;;;;1.85;1.05;;;29.80;53.20;;;;;;6243932;23;20674;-85
2023/09/14 10:00:29;;;;;;;0.38;0.35;;;29.90;53.10;;;;;;6243561;23;20939;-85
2023/09/14 10:03:01;;;;;;;4.55;0.75;;;29.90;52.10;;;;;;6243602;23;20198;-86
2023/09/14 10:05:30;;;;;;;2.35;0.70;;;30.10;52.60;;;;;;6242586;23;20155;-83
2023/09/14 10:08:00;;;;;;;1.45;0.93;;;30.10;52.00;;;;;;6242466;23;20163;-83
2023/09/14 10:10:30;;;;;;;9.48;2.42;;;30.20;52.00;;;;;;6238251;23;20166;-84
2023/09/14 10:12:59;;;;;;;0.65;0.60;;;30.40;51.50;;;;;;6241646;23;20166;-85
2023/09/14 10:15:29;;;;;;;1.10;0.70;;;30.40;51.70;;;;;;6240454;23;20189;-85
2023/09/14 10:17:59;;;;;;;2.50;0.88;;;30.50;52.10;;;;;;6240588;23;20257;-86
2023/09/14 10:20:29;;;;;;;0.47;0.47;;;30.60;51.80;;;;;;6238795;23;20559;-83
2023/09/14 10:23:01;;;;;;;0.68;0.68;;;30.70;51.80;;;;;;6243638;23;20250;-84
2023/09/14 10:25:33;;;;;;;0.50;0.50;;;30.70;51.10;;;;;;6241093;23;20600;-84
2023/09/14 10:28:05;;;;;;;6.28;0.93;;;30.70;49.90;;;;;;6238110;23;20166;-84
2023/09/14 10:30:34;;;;;;;1.00;0.57;;;30.70;49.40;;;;;;6241582;23;20178;-84
2023/09/14 10:33:06;;;;;;;0.88;0.50;;;30.80;49.90;;;;;;6242332;23;20178;-84
2023/09/14 10:35:37;;;;;;;0.50;0.50;;;30.80;49.90;;;;;;6240044;23;20205;-85
2023/09/14 10:38:06;;;;;;;0.85;0.70;;;30.90;50.20;;;;;;6238675;23;20176;-84
2023/09/14 10:40:36;;;;;;;0.98;0.98;;;31.00;50.00;;;;;;6238509;23;20190;-86
2023/09/14 10:43:07;;;;;;;2.13;1.08;;;31.00;49.80;;;;;;6244424;23;20249;-85
2023/09/14 10:45:39;;;;;;;1.23;0.70;;;31.00;50.00;;;;;;6245205;23;20232;-84
2023/09/14 10:48:17;;;;;;;0.95;0.73;;;31.10;50.00;;;;;;6244083;23;20897;-86
2023/09/14 10:50:46;;;;;;;1.25;1.15;;;31.10;49.40;;;;;;6242944;23;20238;-86
2023/09/14 10:53:16;;;;;;;0.80;0.80;;;31.10;49.20;;;;;;6241812;23;20170;-86
2023/09/14 10:55:44;;;;;;;0.93;0.85;;;31.10;49.50;;;;;;6244396;23;20237;-86
2023/09/14 10:58:16;;;;;;;0.20;0.20;;;31.20;49.30;;;;;;6244607;23;20171;-86
2023/09/14 11:00:44;;;;;;;0.95;0.85;;;31.20;49.10;;;;;;6244089;23;20244;-86
2023/09/14 11:03:17;;;;;;;0.40;0.40;;;31.30;49.40;;;;;;6242890;23;20494;-85
2023/09/14 11:05:53;;;;;;;0.30;0.30;;;31.30;49.30;;;;;;6244795;23;20625;-85
2023/09/14 11:08:29;;;;;;;0.60;0.60;;;31.40;49.10;;;;;;6242145;23;20167;-85
2023/09/14 11:11:01;;;;;;;0.80;0.60;;;31.40;48.40;;;;;;6244150;23;20213;-85
2023/09/14 11:13:33;;;;;;;0.38;0.38;;;31.40;47.40;;;;;;6244476;23;20151;-84
2023/09/14 11:16:17;;;;;;;0.70;0.60;;;31.40;46.70;;;;;;6244942;23;20163;-84
2023/09/14 11:18:56;;;;;;;0.20;0.20;;;31.60;47.20;;;;;;6245178;23;20163;-84
2023/09/14 11:21:43;;;;;;;0.32;0.32;;;31.60;47.60;;;;;;6245217;23;20190;-84
2023/09/14 11:24:13;;;;;;;0.30;0.30;;;31.70;47.80;;;;;;6244122;23;20204;-86
2023/09/14 11:26:49;;;;;;;0.40;0.40;;;31.80;47.90;;;;;;6241406;23;20169;-85
2023/09/14 11:29:24;;;;;;;0.50;0.50;;;31.80;48.00;;;;;;6240706;23;20173;-87
2023/09/14 11:31:57;;;;;;;3.85;1.20;;;31.90;47.70;;;;;;6242336;23;20223;-86
2023/09/14 11:34:36;;;;;;;0.28;0.28;;;32.00;46.40;;;;;;6242893;23;20155;-86
2023/09/14 11:37:06;;;;;;;1.05;0.40;;;32.10;45.90;;;;;;6242163;23;20158;-85
2023/09/14 11:39:42;;;;;;;0.65;0.60;;;32.20;46.00;;;;;;6243222;23;20182;-87
2023/09/14 11:42:15;;;;;;;1.75;0.88;;;32.20;44.90;;;;;;6241912;23;20190;-86
2023/09/14 11:44:50;;;;;;;3.10;0.52;;;32.30;45.20;;;;;;6242095;23;20856;-88
2023/09/14 11:47:23;;;;;;;0.52;0.50;;;32.30;45.10;;;;;;6241044;23;20166;-86
2023/09/14 11:49:59;;;;;;;0.82;0.57;;;32.30;45.50;;;;;;6244079;23;20159;-85
2023/09/14 11:52:31;;;;;;;0.65;0.60;;;32.40;45.70;;;;;;6241917;23;20669;-88
2023/09/14 11:55:00;;;;;;;0.75;0.55;;;32.40;45.80;;;;;;6237422;23;20162;-84
2023/09/14 11:57:29;;;;;;;0.30;0.30;;;32.40;45.60;;;;;;6242798;23;20229;-87
2023/09/14 11:59:59;;;;;;;0.57;0.45;;;32.40;45.70;;;;;;6244048;23;20249;-88
2023/09/14 12:02:28;;;;;;;0.70;0.70;;;32.50;45.90;;;;;;6242595;23;20277;-86
2023/09/14 12:04:59;;;;;;;0.50;0.30;;;32.50;45.80;;;;;;6243640;23;20640;-86
2023/09/14 12:07:27;;;;;;;0.45;0.45;;;32.60;45.90;;;;;;6244962;23;20166;-88
2023/09/14 12:09:56;;;;;;;1.45;0.93;;;32.60;45.30;;;;;;6243960;23;20169;-86
2023/09/14 12:12:30;;;;;;;0.45;0.43;;;32.70;44.40;;;;;;6245440;23;20174;-86
2023/09/14 12:15:00;;;;;;;0.50;0.50;;;32.70;44.10;;;;;;6243272;23;20158;-86
2023/09/14 12:17:30;;;;;;;1.05;0.68;;;32.80;44.40;;;;;;6243763;23;20216;-85
2023/09/14 12:20:03;;;;;;;3.75;1.00;;;32.90;44.60;;;;;;6244063;23;20169;-86
2023/09/14 12:22:33;;;;;;;0.68;0.65;;;32.80;44.20;;;;;;6245306;23;20191;-87
2023/09/14 12:25:03;;;;;;;0.30;0.30;;;32.90;44.30;;;;;;6243158;23;20241;-85
2023/09/14 12:27:34;;;;;;;0.60;0.60;;;33.00;44.20;;;;;;6244505;23;20205;-85
2023/09/14 12:30:05;;;;;;;0.50;0.50;;;33.00;44.10;;;;;;6244853;23;20155;-85
2023/09/14 12:32:36;;;;;;;0.50;0.45;;;33.00;44.00;;;;;;6242536;23;20213;-84
2023/09/14 12:35:07;;;;;;;0.40;0.40;;;33.00;44.10;;;;;;6243931;23;20162;-86
2023/09/14 12:37:36;;;;;;;1.45;0.40;;;33.00;44.20;;;;;;6245098;23;20163;-86
2023/09/14 12:40:08;;;;;;;0.30;0.30;;;33.00;43.80;;;;;;6243614;23;20178;-87
2023/09/14 12:42:37;;;;;;;0.35;0.20;;;33.10;44.00;;;;;;6243929;23;20629;-85
2023/09/14 12:45:12;;;;;;;0.32;0.30;;;33.10;43.90;;;;;;6244977;23;20535;-85
2023/09/14 12:47:41;;;;;;;0.40;0.40;;;33.20;43.80;;;;;;6243737;23;20166;-85
2023/09/14 12:50:15;;;;;;;0.90;0.88;;;33.20;43.60;;;;;;6244472;23;20177;-85
2023/09/14 12:52:45;;;;;;;0.55;0.55;;;33.20;43.40;;;;;;6244362;23;20166;-85
2023/09/14 12:55:16;;;;;;;0.45;0.40;;;33.30;43.60;;;;;;6242992;23;20180;-87
2023/09/14 12:57:47;;;;;;;0.98;0.50;;;33.30;43.40;;;;;;6245064;23;20552;-87
2023/09/14 13:00:17;;;;;;;1.85;0.85;;;33.20;41.80;;;;;;6244655;23;20170;-85
2023/09/14 13:02:47;;;;;;;0.80;0.57;;;33.20;41.70;;;;;;6242379;23;20607;-86
2023/09/14 13:05:22;;;;;;;1.67;0.60;;;33.20;41.90;;;;;;6244666;23;20596;-86
2023/09/14 13:07:51;;;;;;;9.63;1.13;;;33.10;41.30;;;;;;6243501;23;20454;-85
2023/09/14 13:10:22;;;;;;;0.40;0.40;;;33.10;41.60;;;;;;6242323;23;20189;-85
2023/09/14 13:12:52;;;;;;;0.60;0.60;;;33.10;42.10;;;;;;6243951;23;20162;-85
2023/09/14 13:15:23;;;;;;;0.35;0.35;;;33.10;42.50;;;;;;6242555;23;20166;-86
2023/09/14 13:17:54;;;;;;;0.47;0.47;;;33.10;42.50;;;;;;6244577;23;20151;-86
2023/09/14 13:20:25;;;;;;;4.47;0.73;;;33.10;42.10;;;;;;6240982;23;20163;-85
2023/09/14 13:22:54;;;;;;;1.15;1.05;;;33.10;42.20;;;;;;6244064;23;20193;-86
2023/09/14 13:25:24;;;;;;;2.00;1.30;;;33.10;42.50;;;;;;6242253;23;20539;-85
2023/09/14 13:27:54;;;;;;;0.50;0.38;;;33.10;42.10;;;;;;6243541;23;20163;-85
2023/09/14 13:30:23;;;;;;;1.63;0.82;;;33.10;42.30;;;;;;6240000;23;20176;-85
2023/09/14 13:32:56;;;;;;;0.40;0.40;;;33.10;42.20;;;;;;6241910;23;20162;-87
2023/09/14 13:35:35;;;;;;;0.80;0.70;;;33.10;41.70;;;;;;6244079;23;20162;-84
2023/09/14 13:38:04;;;;;;;0.77;0.73;;;33.10;41.70;;;;;;6242606;23;20492;-86